Time;durP1;ratioP1;P1;durP2;ratioP2;P2;SDS_P1;SDS_P2;PMS_P1;PMS_P2;Temp;Humidity;BMP_temperature;BMP_pressure;BME280_temperature;BME280_humidity;BME280_pressure;Samples;Min_cycle;Max_cycle;Signal;HPM_P1;HPM_P2
2022/07/03 00:01:20;;;;;;;5.28;1.30;;;27.70;54.70;;;;;;5116253;27;20110;-67
2022/07/03 00:03:45;;;;;;;4.07;1.35;;;27.70;54.10;;;;;;5115225;28;20063;-66
2022/07/03 00:06:11;;;;;;;5.07;1.50;;;27.70;53.80;;;;;;5113295;28;20186;-66
2022/07/03 00:08:37;;;;;;;3.72;1.50;;;27.70;54.20;;;;;;5113873;28;20049;-70
2022/07/03 00:11:05;;;;;;;10.90;1.40;;;27.70;54.10;;;;;;5115990;28;20036;-67
2022/07/03 00:13:30;;;;;;;8.10;1.15;;;27.70;53.80;;;;;;5115910;28;20024;-66
2022/07/03 00:15:56;;;;;;;7.45;1.40;;;27.60;54.00;;;;;;5115407;27;20464;-66
2022/07/03 00:18:22;;;;;;;3.50;1.33;;;27.60;53.70;;;;;;5115852;28;20028;-66
2022/07/03 00:20:53;;;;;;;4.30;1.38;;;27.60;53.70;;;;;;5116022;28;20031;-67
2022/07/03 00:23:21;;;;;;;3.78;1.38;;;27.50;53.60;;;;;;5115878;28;20575;-67
2022/07/03 00:25:49;;;;;;;5.38;1.33;;;27.50;53.70;;;;;;5114320;28;20429;-68
2022/07/03 00:28:17;;;;;;;3.10;1.30;;;27.50;53.50;;;;;;5115643;28;20355;-67
2022/07/03 00:30:47;;;;;;;10.10;1.50;;;27.50;53.40;;;;;;5115907;28;20042;-66
2022/07/03 00:33:14;;;;;;;6.00;1.95;;;27.40;53.60;;;;;;5115687;28;20042;-66
2022/07/03 00:35:43;;;;;;;3.83;1.25;;;27.40;53.90;;;;;;5115516;28;20054;-66
2022/07/03 00:38:12;;;;;;;3.85;1.30;;;27.40;53.90;;;;;;5115520;28;20123;-67
2022/07/03 00:40:38;;;;;;;10.13;1.80;;;27.40;53.50;;;;;;5115271;28;20040;-67
2022/07/03 00:43:04;;;;;;;4.85;1.45;;;27.40;53.50;;;;;;5115517;28;20031;-67
2022/07/03 00:45:34;;;;;;;4.85;1.70;;;27.40;53.40;;;;;;5115459;28;20592;-67
2022/07/03 00:48:00;;;;;;;4.43;1.42;;;27.30;53.40;;;;;;5115541;28;20028;-66
2022/07/03 00:50:34;;;;;;;6.68;1.48;;;27.30;53.30;;;;;;5115125;28;20110;-66
2022/07/03 00:53:02;;;;;;;7.35;1.40;;;27.30;53.10;;;;;;5114942;28;20110;-67
2022/07/03 00:55:28;;;;;;;5.65;1.52;;;27.30;53.10;;;;;;5115272;28;20493;-67
2022/07/03 00:57:56;;;;;;;3.85;1.27;;;27.30;53.00;;;;;;5114130;28;20085;-66
2022/07/03 01:00:22;;;;;;;5.32;1.45;;;27.30;52.90;;;;;;5112195;28;20038;-66
2022/07/03 01:03:19;;;;;;;6.85;1.58;;;27.30;52.80;;;;;;5112124;28;20105;-67
2022/07/03 01:05:49;;;;;;;3.35;1.40;;;27.30;52.70;;;;;;5097731;28;20130;-68
2022/07/03 01:08:49;;;;;;;4.88;1.60;;;27.30;52.10;;;;;;5114713;28;20028;-66
2022/07/03 01:11:38;;;;;;;8.85;1.63;;;27.30;51.90;;;;;;5108980;28;20040;-66
2022/07/03 01:14:24;;;;;;;6.18;1.17;;;27.30;52.50;;;;;;5114023;28;20588;-68
2022/07/03 01:17:01;;;;;;;4.72;1.30;;;27.30;52.50;;;;;;5114039;28;20051;-65
2022/07/03 01:19:36;;;;;;;6.07;1.52;;;27.30;52.10;;;;;;5114550;28;20160;-66
2022/07/03 01:22:12;;;;;;;6.45;1.58;;;27.20;51.80;;;;;;5114165;28;20031;-68
2022/07/03 01:25:02;;;;;;;5.00;1.88;;;27.20;51.80;;;;;;5114274;28;20035;-70
2022/07/03 01:27:42;;;;;;;6.38;1.30;;;27.20;51.90;;;;;;5114338;28;20052;-64
2022/07/03 01:30:11;;;;;;;3.08;1.27;;;27.20;51.60;;;;;;5114260;28;20631;-67
2022/07/03 01:32:51;;;;;;;13.32;2.42;;;27.20;51.60;;;;;;5114521;28;20039;-67
2022/07/03 01:35:22;;;;;;;5.97;1.33;;;27.20;51.40;;;;;;5114142;27;20114;-68
2022/07/03 01:37:50;;;;;;;5.13;1.20;;;27.10;52.20;;;;;;5114113;28;20032;-67
2022/07/03 01:40:17;;;;;;;8.02;1.60;;;27.10;51.60;;;;;;5114082;28;20057;-66
2022/07/03 01:42:44;;;;;;;8.95;1.60;;;27.10;51.60;;;;;;5114135;28;20028;-67
2022/07/03 01:45:13;;;;;;;3.53;1.00;;;27.10;51.60;;;;;;5113945;28;20050;-66
2022/07/03 01:47:41;;;;;;;2.35;1.05;;;27.10;51.50;;;;;;5113885;28;20039;-65
2022/07/03 01:50:12;;;;;;;4.25;1.45;;;27.10;51.20;;;;;;5114116;28;20039;-66
2022/07/03 01:52:42;;;;;;;5.88;1.40;;;27.00;51.20;;;;;;5114007;28;20365;-70
2022/07/03 01:55:13;;;;;;;9.35;1.30;;;27.00;51.20;;;;;;5113880;27;20470;-67
2022/07/03 01:57:47;;;;;;;6.55;1.83;;;27.00;51.10;;;;;;5114185;28;20062;-67
2022/07/03 02:00:16;;;;;;;1.60;1.13;;;27.00;51.10;;;;;;5113895;28;20031;-66
2022/07/03 02:02:53;;;;;;;6.18;1.27;;;27.00;51.20;;;;;;5114044;28;20031;-67
2022/07/03 02:05:38;;;;;;;7.15;1.30;;;27.00;50.60;;;;;;5113709;28;20396;-66
2022/07/03 02:08:08;;;;;;;5.38;1.30;;;27.00;50.50;;;;;;5114083;28;20043;-67
2022/07/03 02:10:40;;;;;;;3.42;1.23;;;27.00;50.60;;;;;;5113823;28;20085;-66
2022/07/03 02:13:27;;;;;;;5.68;1.50;;;27.00;50.80;;;;;;5113716;28;20030;-66
2022/07/03 02:15:57;;;;;;;4.70;1.30;;;27.00;51.30;;;;;;5113546;28;20083;-67
2022/07/03 02:18:32;;;;;;;3.72;1.38;;;27.00;51.10;;;;;;5113423;28;20061;-67
2022/07/03 02:21:08;;;;;;;6.65;1.40;;;27.00;51.30;;;;;;5113549;28;20073;-66
2022/07/03 02:23:47;;;;;;;3.38;1.42;;;27.00;51.60;;;;;;5113514;27;20039;-67
2022/07/03 02:26:16;;;;;;;3.35;1.50;;;27.00;51.50;;;;;;5113674;28;20489;-66
2022/07/03 02:29:06;;;;;;;4.45;1.30;;;27.00;51.70;;;;;;5113309;28;20040;-67
2022/07/03 02:31:45;;;;;;;3.28;1.20;;;27.00;51.40;;;;;;5113226;28;20059;-66
2022/07/03 02:34:16;;;;;;;3.95;1.30;;;27.00;51.30;;;;;;5113083;28;20110;-67
2022/07/03 02:36:45;;;;;;;3.85;1.25;;;27.00;51.30;;;;;;5113086;28;20027;-68
2022/07/03 02:39:19;;;;;;;6.07;1.23;;;27.00;51.30;;;;;;5113080;28;20039;-67
2022/07/03 02:41:57;;;;;;;4.20;1.42;;;26.90;51.40;;;;;;5112976;28;20065;-66
2022/07/03 02:44:48;;;;;;;4.93;1.30;;;26.90;52.30;;;;;;5112913;28;20085;-67
2022/07/03 02:47:35;;;;;;;3.63;1.42;;;26.90;51.60;;;;;;5112857;28;20402;-67
2022/07/03 02:50:10;;;;;;;7.65;1.40;;;26.80;51.60;;;;;;5112512;28;20466;-65
2022/07/03 02:52:52;;;;;;;5.95;1.67;;;26.80;52.30;;;;;;5112916;28;20042;-67
2022/07/03 02:55:42;;;;;;;4.82;1.85;;;26.70;53.70;;;;;;5113144;28;20039;-67
2022/07/03 02:58:17;;;;;;;3.10;1.40;;;26.60;53.00;;;;;;5113218;28;20096;-67
2022/07/03 03:00:57;;;;;;;5.15;1.30;;;26.70;53.10;;;;;;5113343;28;20480;-68
2022/07/03 03:03:27;;;;;;;6.82;1.55;;;26.60;52.30;;;;;;5113215;28;20028;-67
2022/07/03 03:05:59;;;;;;;2.97;1.27;;;26.60;52.60;;;;;;5112813;28;20489;-66
2022/07/03 03:08:41;;;;;;;4.90;1.33;;;26.60;53.40;;;;;;5113006;28;20500;-67
2022/07/03 03:11:12;;;;;;;3.78;1.35;;;26.50;53.30;;;;;;5112756;28;20039;-66
2022/07/03 03:13:41;;;;;;;3.80;1.48;;;26.50;53.20;;;;;;5112670;28;20033;-66
2022/07/03 03:16:12;;;;;;;2.75;1.30;;;26.40;54.00;;;;;;5112724;28;20523;-67
2022/07/03 03:18:40;;;;;;;2.20;1.13;;;26.50;53.70;;;;;;5112664;28;20043;-67
2022/07/03 03:21:09;;;;;;;10.70;1.90;;;26.40;53.30;;;;;;5112831;28;20042;-67
2022/07/03 03:24:01;;;;;;;2.58;1.20;;;26.40;53.20;;;;;;5112563;28;20503;-66
2022/07/03 03:26:28;;;;;;;4.53;1.50;;;26.40;53.00;;;;;;5109043;28;20075;-66
2022/07/03 03:28:54;;;;;;;8.40;1.50;;;26.40;53.60;;;;;;5112492;28;20035;-67
2022/07/03 03:31:21;;;;;;;5.90;1.23;;;26.40;53.20;;;;;;5112666;28;20035;-66
2022/07/03 03:33:50;;;;;;;4.78;1.40;;;26.30;53.60;;;;;;5112707;28;20034;-67
2022/07/03 03:36:18;;;;;;;3.08;1.33;;;26.30;53.90;;;;;;5112741;28;20064;-65
2022/07/03 03:38:44;;;;;;;3.35;1.52;;;26.30;54.00;;;;;;5112829;28;20115;-67
2022/07/03 03:41:10;;;;;;;7.35;1.40;;;26.30;54.10;;;;;;5112554;28;20106;-67
2022/07/03 03:43:36;;;;;;;5.32;1.55;;;26.30;53.70;;;;;;5112370;28;20131;-70
2022/07/03 03:46:02;;;;;;;4.93;1.63;;;26.30;53.50;;;;;;5112478;28;20046;-66
2022/07/03 03:48:29;;;;;;;4.43;1.35;;;26.30;53.30;;;;;;5112416;28;20078;-67
2022/07/03 03:50:56;;;;;;;4.95;1.40;;;26.30;53.20;;;;;;5112653;28;20051;-67
2022/07/03 03:53:24;;;;;;;4.10;1.10;;;26.30;53.10;;;;;;5112801;28;20427;-67
2022/07/03 03:55:54;;;;;;;4.03;1.50;;;26.30;53.10;;;;;;5112463;28;20111;-67
2022/07/03 03:58:20;;;;;;;5.25;1.40;;;26.30;53.00;;;;;;5109485;28;20066;-67
2022/07/03 04:00:45;;;;;;;3.22;1.30;;;26.30;53.10;;;;;;5110675;28;20044;-66
2022/07/03 04:03:11;;;;;;;12.00;3.00;;;26.30;53.50;;;;;;5115291;28;20031;-67
2022/07/03 04:05:37;;;;;;;5.63;1.40;;;26.30;53.40;;;;;;5116013;28;20609;-66
2022/07/03 04:08:03;;;;;;;5.53;1.77;;;26.30;53.20;;;;;;5116091;28;20063;-67
2022/07/03 04:10:28;;;;;;;5.40;1.70;;;26.30;53.70;;;;;;5115993;28;20067;-66
2022/07/03 04:12:54;;;;;;;4.82;1.50;;;26.30;53.30;;;;;;5115902;28;20032;-71
2022/07/03 04:15:20;;;;;;;5.03;1.20;;;26.30;54.00;;;;;;5115968;28;20084;-66
2022/07/03 04:17:45;;;;;;;4.50;1.33;;;26.30;53.70;;;;;;5115766;28;20036;-71
2022/07/03 04:20:11;;;;;;;4.93;1.20;;;26.30;53.60;;;;;;5115853;28;20027;-67
2022/07/03 04:22:37;;;;;;;6.93;1.48;;;26.30;54.00;;;;;;5115805;28;20028;-67
2022/07/03 04:25:03;;;;;;;8.05;2.63;;;26.30;54.40;;;;;;5115586;28;20497;-67
2022/07/03 04:27:29;;;;;;;35.72;9.98;;;26.30;55.10;;;;;;5115697;27;20035;-68
2022/07/03 04:29:55;;;;;;;23.05;5.38;;;26.30;55.70;;;;;;5115333;28;20052;-67
2022/07/03 04:32:21;;;;;;;8.63;1.90;;;26.30;58.30;;;;;;5115355;28;20562;-66
2022/07/03 04:34:46;;;;;;;4.63;2.08;;;26.30;58.20;;;;;;5115453;28;20107;-66
2022/07/03 04:37:12;;;;;;;2.92;1.30;;;26.30;59.10;;;;;;5115431;28;20038;-65
2022/07/03 04:39:38;;;;;;;5.63;1.52;;;26.30;57.80;;;;;;5115235;28;20032;-68
2022/07/03 04:42:04;;;;;;;6.03;1.20;;;26.30;58.10;;;;;;5115416;28;20038;-67
2022/07/03 04:44:29;;;;;;;4.72;1.77;;;26.40;58.50;;;;;;5115170;28;20028;-67
2022/07/03 04:46:55;;;;;;;3.65;1.45;;;26.30;58.70;;;;;;5115212;28;20486;-67
2022/07/03 04:49:21;;;;;;;5.28;1.80;;;26.40;58.00;;;;;;5115291;28;20028;-67
2022/07/03 04:51:46;;;;;;;7.72;1.73;;;26.40;57.80;;;;;;5115150;28;20044;-67
2022/07/03 04:54:12;;;;;;;5.07;1.50;;;26.50;57.50;;;;;;5115034;28;20059;-67
2022/07/03 04:56:38;;;;;;;7.28;1.52;;;26.40;57.70;;;;;;5115373;28;20027;-67
2022/07/03 04:59:03;;;;;;;5.60;1.30;;;26.40;57.50;;;;;;5114900;28;20487;-67
2022/07/03 05:01:29;;;;;;;6.45;1.20;;;26.40;56.80;;;;;;5114865;28;20028;-67
2022/07/03 05:03:55;;;;;;;9.73;1.77;;;26.50;55.80;;;;;;5114993;28;20046;-67
2022/07/03 05:06:20;;;;;;;3.88;1.42;;;26.40;55.50;;;;;;5114724;28;20535;-67
2022/07/03 05:08:46;;;;;;;6.28;1.52;;;26.40;55.10;;;;;;5114949;28;20027;-67
2022/07/03 05:11:12;;;;;;;4.72;1.63;;;26.50;55.70;;;;;;5114414;28;20408;-67
2022/07/03 05:13:37;;;;;;;4.75;1.27;;;26.50;55.70;;;;;;5113328;28;20304;-66
2022/07/03 05:16:03;;;;;;;5.82;2.00;;;26.50;55.20;;;;;;5113619;28;20062;-68
2022/07/03 05:18:29;;;;;;;5.10;1.30;;;26.60;55.50;;;;;;5114702;28;20107;-68
2022/07/03 05:20:54;;;;;;;8.30;1.58;;;26.60;55.00;;;;;;5114483;28;20474;-67
2022/07/03 05:23:20;;;;;;;3.58;1.40;;;26.60;54.60;;;;;;5112547;28;20035;-67
2022/07/03 05:25:46;;;;;;;5.63;1.80;;;26.60;54.90;;;;;;5114168;28;20044;-67
2022/07/03 05:28:12;;;;;;;2.67;1.30;;;26.60;54.50;;;;;;5114843;28;20028;-67
2022/07/03 05:30:37;;;;;;;4.63;1.30;;;26.70;55.10;;;;;;5114211;28;20043;-67
2022/07/03 05:33:03;;;;;;;6.70;1.65;;;26.70;55.50;;;;;;5113193;28;20036;-67
2022/07/03 05:35:29;;;;;;;2.60;1.10;;;26.70;55.60;;;;;;5113062;28;20397;-67
2022/07/03 05:37:54;;;;;;;3.58;1.55;;;26.70;55.40;;;;;;5113640;28;20104;-67
2022/07/03 05:40:20;;;;;;;6.78;1.95;;;26.80;54.70;;;;;;5113252;28;20035;-68
2022/07/03 05:42:46;;;;;;;2.75;1.33;;;26.90;53.70;;;;;;5114021;28;20517;-67
2022/07/03 05:45:12;;;;;;;5.70;1.33;;;26.90;52.90;;;;;;5114304;28;20374;-68
2022/07/03 05:47:37;;;;;;;4.00;1.30;;;27.00;52.70;;;;;;5114555;28;20504;-67
2022/07/03 05:50:03;;;;;;;5.50;1.60;;;27.00;52.70;;;;;;5114827;28;20024;-67
2022/07/03 05:52:29;;;;;;;5.80;1.25;;;27.00;53.00;;;;;;5114281;28;20031;-67
2022/07/03 05:54:55;;;;;;;7.00;1.25;;;27.00;53.30;;;;;;5114135;28;20420;-67
2022/07/03 05:57:21;;;;;;;5.60;1.27;;;27.10;53.30;;;;;;5114419;27;20035;-67
2022/07/03 05:59:47;;;;;;;4.70;1.50;;;27.10;52.50;;;;;;5114190;28;20034;-67
2022/07/03 06:02:12;;;;;;;4.50;1.30;;;27.10;52.10;;;;;;5114289;28;20027;-67
2022/07/03 06:04:38;;;;;;;4.93;1.30;;;27.20;51.90;;;;;;5113937;28;20032;-70
2022/07/03 06:07:04;;;;;;;5.53;1.45;;;27.20;51.60;;;;;;5114195;28;20043;-67
2022/07/03 06:09:29;;;;;;;5.80;1.23;;;27.30;51.50;;;;;;5113812;28;20031;-67
2022/07/03 06:11:55;;;;;;;5.93;1.35;;;27.40;51.20;;;;;;5114173;28;20057;-67
2022/07/03 06:14:21;;;;;;;4.70;1.40;;;27.40;51.10;;;;;;5114009;28;20374;-67
2022/07/03 06:16:47;;;;;;;8.30;1.67;;;27.40;51.60;;;;;;5113685;28;20047;-68
2022/07/03 06:19:13;;;;;;;5.70;1.50;;;27.40;51.30;;;;;;5114115;28;20480;-67
2022/07/03 06:21:38;;;;;;;7.85;1.30;;;27.40;51.10;;;;;;5113911;28;20115;-66
2022/07/03 06:24:05;;;;;;;4.97;1.38;;;27.50;51.40;;;;;;5112863;28;20111;-67
2022/07/03 06:26:30;;;;;;;4.18;1.30;;;27.50;51.50;;;;;;5113740;28;20469;-67
2022/07/03 06:28:56;;;;;;;3.88;1.33;;;27.50;50.70;;;;;;5113555;28;20039;-67
2022/07/03 06:31:22;;;;;;;7.22;1.65;;;27.60;50.80;;;;;;5113742;28;20047;-69
2022/07/03 06:33:47;;;;;;;6.05;1.63;;;27.60;50.50;;;;;;5113723;28;20036;-67
2022/07/03 06:36:13;;;;;;;5.18;1.60;;;27.60;50.20;;;;;;5113668;28;20058;-67
2022/07/03 06:38:39;;;;;;;4.28;1.40;;;27.70;50.80;;;;;;5113541;28;20077;-67
2022/07/03 06:41:05;;;;;;;6.15;1.27;;;27.70;51.20;;;;;;5113474;28;20078;-67
2022/07/03 06:43:30;;;;;;;11.82;1.80;;;27.70;51.00;;;;;;5113624;28;20027;-67
2022/07/03 06:45:56;;;;;;;5.35;1.70;;;27.80;50.80;;;;;;5113504;28;20035;-67
2022/07/03 06:48:22;;;;;;;7.70;1.70;;;27.80;51.00;;;;;;5113560;28;20024;-68
2022/07/03 06:50:47;;;;;;;4.15;1.27;;;27.80;51.20;;;;;;5113482;28;20035;-67
2022/07/03 06:53:13;;;;;;;4.80;1.40;;;27.90;51.70;;;;;;5113300;28;20397;-67
2022/07/03 06:55:39;;;;;;;6.43;1.40;;;27.90;51.30;;;;;;5113647;28;20029;-67
2022/07/03 06:58:04;;;;;;;4.38;1.60;;;28.00;51.70;;;;;;5113443;28;20032;-67
2022/07/03 07:00:30;;;;;;;3.05;1.40;;;28.00;52.40;;;;;;5113310;28;20039;-67
2022/07/03 07:02:56;;;;;;;3.88;1.42;;;28.10;51.50;;;;;;5113515;28;20032;-66
2022/07/03 07:05:22;;;;;;;5.80;1.17;;;28.10;51.50;;;;;;5113205;28;20058;-67
2022/07/03 07:07:48;;;;;;;8.20;1.70;;;28.20;52.40;;;;;;5113315;28;20039;-67
2022/07/03 07:10:14;;;;;;;6.38;1.40;;;28.20;52.20;;;;;;5113380;28;20424;-67
2022/07/03 07:12:39;;;;;;;2.58;1.33;;;28.20;51.70;;;;;;5113283;28;20039;-66
2022/07/03 07:15:06;;;;;;;5.10;1.40;;;28.30;51.80;;;;;;5113495;28;20063;-67
2022/07/03 07:17:31;;;;;;;5.63;1.42;;;28.30;51.60;;;;;;5113236;28;20043;-67
2022/07/03 07:19:57;;;;;;;6.40;1.35;;;28.30;51.30;;;;;;5113242;28;20044;-70
2022/07/03 07:22:25;;;;;;;4.43;1.60;;;28.40;51.10;;;;;;5112923;28;20027;-68
2022/07/03 07:24:51;;;;;;;3.65;1.30;;;28.40;50.00;;;;;;5113077;28;20058;-67
2022/07/03 07:27:16;;;;;;;3.95;1.63;;;28.40;50.20;;;;;;5113038;28;20044;-67
2022/07/03 07:29:42;;;;;;;5.28;1.52;;;28.40;50.10;;;;;;5113039;28;20081;-66
2022/07/03 07:32:08;;;;;;;4.18;1.38;;;28.50;49.50;;;;;;5113186;28;20035;-67
2022/07/03 07:34:34;;;;;;;9.07;1.48;;;28.50;49.60;;;;;;5113981;28;20081;-67
2022/07/03 07:36:59;;;;;;;5.47;1.63;;;28.60;50.30;;;;;;5116715;28;20100;-70
2022/07/03 07:39:25;;;;;;;2.83;1.38;;;28.60;51.00;;;;;;5117045;28;20031;-67
2022/07/03 07:41:51;;;;;;;2.97;1.38;;;28.70;50.80;;;;;;5117372;28;20039;-67
2022/07/03 07:44:17;;;;;;;6.75;1.92;;;28.70;50.10;;;;;;5116731;28;20028;-68
2022/07/03 07:46:42;;;;;;;6.82;1.52;;;28.80;49.90;;;;;;5116689;28;20217;-67
2022/07/03 07:49:08;;;;;;;4.90;1.35;;;28.80;49.50;;;;;;5116818;28;20055;-68
2022/07/03 07:51:33;;;;;;;8.40;1.27;;;28.90;50.10;;;;;;5116766;28;20036;-67
2022/07/03 07:53:59;;;;;;;6.53;1.63;;;28.90;50.10;;;;;;5116525;28;20386;-67
2022/07/03 07:56:26;;;;;;;2.83;1.70;;;29.00;49.90;;;;;;5116712;28;20067;-67
2022/07/03 07:58:52;;;;;;;6.70;1.83;;;29.00;50.00;;;;;;5116768;28;20031;-67
2022/07/03 08:06:50;;;;;;;4.53;1.65;;;29.20;49.80;;;;;;5116382;28;20050;-67
2022/07/03 08:09:15;;;;;;;11.55;1.65;;;29.30;49.40;;;;;;5116385;28;20023;-67
2022/07/03 08:11:41;;;;;;;6.13;1.50;;;29.30;48.80;;;;;;5116415;28;20378;-68
2022/07/03 08:14:07;;;;;;;4.45;1.40;;;29.40;49.00;;;;;;5116412;28;20077;-67
2022/07/03 08:16:34;;;;;;;8.63;1.50;;;29.40;48.60;;;;;;5115999;28;20105;-67
2022/07/03 08:19:00;;;;;;;5.65;1.88;;;29.50;48.80;;;;;;5116260;28;20110;-67
2022/07/03 08:21:26;;;;;;;11.82;1.90;;;29.50;48.90;;;;;;5116411;28;20118;-68
2022/07/03 08:23:52;;;;;;;4.57;1.52;;;29.60;48.20;;;;;;5116198;28;20513;-67
2022/07/03 08:26:18;;;;;;;6.50;1.92;;;29.70;47.70;;;;;;5115891;28;20071;-66
2022/07/03 08:28:44;;;;;;;5.15;1.88;;;29.70;48.10;;;;;;5116286;27;20070;-68
2022/07/03 08:31:09;;;;;;;6.03;1.58;;;29.70;48.50;;;;;;5115814;28;20508;-67
2022/07/03 08:33:36;;;;;;;8.30;1.95;;;29.80;48.70;;;;;;5116044;28;20501;-67
2022/07/03 08:36:02;;;;;;;10.15;2.25;;;29.90;49.10;;;;;;5115953;28;20494;-67
2022/07/03 08:38:35;;;;;;;5.18;1.33;;;29.90;48.50;;;;;;5115988;28;20040;-67
2022/07/03 08:41:03;;;;;;;5.10;1.60;;;30.00;48.00;;;;;;5115526;28;20508;-68
2022/07/03 08:43:29;;;;;;;8.60;2.22;;;30.10;48.00;;;;;;5115609;28;20106;-66
2022/07/03 08:45:56;;;;;;;8.65;1.30;;;30.20;48.60;;;;;;5115818;28;20131;-68
2022/07/03 08:48:22;;;;;;;4.90;1.38;;;30.30;47.90;;;;;;5115573;28;20039;-67
2022/07/03 08:50:51;;;;;;;3.22;1.30;;;30.30;47.60;;;;;;5115674;28;20473;-67
2022/07/03 08:53:17;;;;;;;7.95;1.50;;;30.40;47.70;;;;;;5115336;28;20111;-67
2022/07/03 08:55:44;;;;;;;7.03;1.60;;;30.40;47.40;;;;;;5115444;28;20451;-68
2022/07/03 08:58:13;;;;;;;4.82;1.48;;;30.50;46.90;;;;;;5115308;27;20030;-67
2022/07/03 09:00:38;;;;;;;5.07;1.90;;;30.60;46.50;;;;;;5115634;28;20038;-68
2022/07/03 09:03:10;;;;;;;5.13;1.50;;;30.60;46.90;;;;;;5115476;28;20397;-68
2022/07/03 09:05:35;;;;;;;5.95;1.88;;;30.70;46.60;;;;;;5115208;28;20048;-67
2022/07/03 09:08:02;;;;;;;10.50;2.47;;;30.70;46.10;;;;;;5115463;28;20039;-67
2022/07/03 09:10:28;;;;;;;5.30;2.03;;;30.80;46.10;;;;;;5115298;28;20054;-66
2022/07/03 09:12:55;;;;;;;6.70;1.92;;;30.90;46.40;;;;;;5115182;28;20044;-67
2022/07/03 09:15:22;;;;;;;5.95;1.80;;;30.90;45.90;;;;;;5115135;28;20111;-67
2022/07/03 09:18:07;;;;;;;10.00;2.25;;;30.90;45.80;;;;;;5114934;28;20042;-67
2022/07/03 09:20:35;;;;;;;6.22;2.00;;;31.00;45.30;;;;;;5115127;28;20031;-67
2022/07/03 09:23:13;;;;;;;6.43;1.73;;;31.00;46.10;;;;;;5115042;28;20024;-69
2022/07/03 09:25:59;;;;;;;8.52;1.70;;;31.10;45.50;;;;;;5114909;28;20058;-67
2022/07/03 09:28:47;;;;;;;8.82;1.63;;;31.10;45.20;;;;;;5115017;28;20042;-67
2022/07/03 09:31:15;;;;;;;4.32;1.67;;;31.10;45.10;;;;;;5114861;28;20027;-70
2022/07/03 09:34:02;;;;;;;7.35;2.08;;;31.20;44.10;;;;;;5114684;28;20038;-68
2022/07/03 09:36:45;;;;;;;4.88;1.65;;;31.20;43.40;;;;;;5114499;28;20031;-67
2022/07/03 09:39:30;;;;;;;5.97;2.08;;;31.30;43.70;;;;;;5114677;27;20103;-67
2022/07/03 09:41:57;;;;;;;6.13;1.60;;;31.30;43.60;;;;;;5114441;28;20397;-67
2022/07/03 09:44:45;;;;;;;5.07;1.55;;;31.30;43.40;;;;;;5114620;28;20520;-67
2022/07/03 09:47:18;;;;;;;5.43;1.60;;;31.40;44.30;;;;;;5114424;28;20058;-68
2022/07/03 09:49:58;;;;;;;6.80;2.05;;;31.40;43.70;;;;;;5114516;28;20039;-67
2022/07/03 09:52:44;;;;;;;6.20;2.30;;;31.40;43.60;;;;;;5114584;28;20024;-69
2022/07/03 09:55:10;;;;;;;5.95;1.40;;;31.50;43.80;;;;;;5114449;28;20032;-67
2022/07/03 09:57:41;;;;;;;5.38;1.55;;;31.60;43.70;;;;;;5114758;28;20038;-67
2022/07/03 10:00:11;;;;;;;;;;;31.70;43.80;;;;;;5114777;28;20040;-67
2022/07/03 10:02:57;;;;;;;8.95;1.95;;;31.70;43.90;;;;;;5114169;28;19904;-67
2022/07/03 10:05:42;;;;;;;7.65;1.73;;;31.80;43.30;;;;;;5113653;28;20043;-67
2022/07/03 10:08:15;;;;;;;5.65;1.50;;;31.90;43.20;;;;;;5112927;28;20438;-67
2022/07/03 10:10:43;;;;;;;5.45;1.80;;;31.90;43.50;;;;;;5114343;28;20431;-67
2022/07/03 10:13:10;;;;;;;6.32;1.92;;;32.00;43.40;;;;;;5113996;28;20038;-67
2022/07/03 10:15:38;;;;;;;6.88;1.40;;;32.10;43.90;;;;;;5114034;28;20028;-70
2022/07/03 10:18:06;;;;;;;11.27;2.00;;;32.20;43.30;;;;;;5113893;28;20032;-67
2022/07/03 10:20:39;;;;;;;8.63;1.77;;;32.20;43.20;;;;;;5113967;28;20488;-67
2022/07/03 10:23:05;;;;;;;6.63;1.63;;;32.30;42.60;;;;;;5113622;28;20036;-67
2022/07/03 10:25:31;;;;;;;5.07;1.80;;;32.30;43.90;;;;;;5114199;28;20119;-67
2022/07/03 10:27:57;;;;;;;5.13;1.77;;;32.30;43.00;;;;;;5114127;28;20074;-68
2022/07/03 10:30:24;;;;;;;6.55;1.77;;;32.30;43.00;;;;;;5113953;28;20048;-70
2022/07/03 10:32:52;;;;;;;6.70;2.00;;;32.40;43.40;;;;;;5113964;28;20043;-66
2022/07/03 10:35:21;;;;;;;5.95;1.75;;;32.50;43.30;;;;;;5113699;28;20036;-67
2022/07/03 10:38:02;;;;;;;5.40;2.20;;;32.50;41.40;;;;;;5113675;28;20039;-67
2022/07/03 10:46:13;;;;;;;5.70;1.60;;;32.70;42.20;;;;;;5113675;28;20046;-67
2022/07/03 10:48:52;;;;;;;7.88;1.80;;;32.80;41.40;;;;;;5113527;28;20032;-67
2022/07/03 10:51:18;;;;;;;7.75;1.52;;;32.80;40.70;;;;;;5113584;28;20405;-66
2022/07/03 10:53:44;;;;;;;5.00;1.98;;;32.90;40.40;;;;;;5113416;28;20032;-67
2022/07/03 10:56:10;;;;;;;5.40;2.25;;;32.90;40.10;;;;;;5113548;28;20035;-67
2022/07/03 10:58:55;;;;;;;10.57;1.80;;;33.00;40.50;;;;;;5111533;28;20032;-67
2022/07/03 11:01:30;;;;;;;7.22;1.88;;;33.00;40.70;;;;;;5110466;28;20361;-70
2022/07/03 11:04:00;;;;;;;6.60;2.33;;;;;;;;;;5111986;28;20044;-70
2022/07/03 11:06:44;;;;;;;6.47;1.73;;;;;;;;;;5113529;28;20044;-67
2022/07/03 11:09:12;;;;;;;8.82;1.52;;;33.10;41.30;;;;;;5113541;28;20036;-67
2022/07/03 11:11:55;;;;;;;5.97;1.85;;;;;;;;;;5117607;28;20028;-68
2022/07/03 11:14:22;;;;;;;7.55;1.90;;;;;;;;;;5117402;28;20039;-68
2022/07/03 11:16:48;;;;;;;5.00;2.03;;;;;;;;;;5117367;28;20044;-66
2022/07/03 11:19:14;;;;;;;5.50;1.70;;;;;;;;;;5117373;28;20035;-67
2022/07/03 11:21:48;;;;;;;10.15;1.95;;;;;;;;;;5117569;28;20111;-67
2022/07/03 11:24:39;;;;;;;6.53;1.80;;;33.50;41.00;;;;;;5114539;28;20031;-69
2022/07/03 11:27:23;;;;;;;5.15;1.63;;;33.80;39.60;;;;;;5114231;28;20043;-69
2022/07/03 11:29:56;;;;;;;5.38;1.90;;;33.80;39.50;;;;;;5115554;28;20027;-68
2022/07/03 11:32:57;;;;;;;4.72;1.88;;;33.80;39.90;;;;;;5116581;28;20036;-67
2022/07/03 11:35:48;;;;;;;7.40;2.15;;;33.90;39.40;;;;;;5073769;27;20511;-71
2022/07/03 11:38:26;;;;;;;5.68;1.90;;;33.90;39.20;;;;;;5116819;28;20031;-67
2022/07/03 11:40:53;;;;;;;6.70;1.75;;;33.90;38.90;;;;;;5116863;28;20063;-67
2022/07/03 11:43:19;;;;;;;9.68;1.73;;;34.00;39.50;;;;;;5116702;28;20362;-69
2022/07/03 11:45:46;;;;;;;6.60;2.03;;;34.10;39.20;;;;;;5116327;28;20040;-71
2022/07/03 11:48:15;;;;;;;5.38;1.45;;;34.10;39.10;;;;;;5116747;27;20062;-66
2022/07/03 11:50:42;;;;;;;4.72;1.40;;;34.10;37.80;;;;;;5116507;28;20043;-67
2022/07/03 11:53:46;;;;;;;4.53;1.70;;;34.10;38.80;;;;;;5116217;28;20034;-67
2022/07/03 11:56:14;;;;;;;5.60;1.58;;;34.10;38.50;;;;;;5033857;28;20459;-67
2022/07/03 11:58:52;;;;;;;6.53;1.50;;;34.10;39.70;;;;;;5033651;28;20025;-68
2022/07/03 12:01:26;;;;;;;5.25;1.63;;;34.10;38.90;;;;;;5080163;28;20105;-66
2022/07/03 12:04:12;;;;;;;6.32;1.60;;;34.20;39.10;;;;;;5116399;28;20042;-71
2022/07/03 12:06:45;;;;;;;5.07;1.98;;;34.20;38.60;;;;;;5116292;28;20036;-67
2022/07/03 12:09:22;;;;;;;4.38;1.65;;;34.20;38.20;;;;;;5116388;28;20389;-67
2022/07/03 12:12:01;;;;;;;4.70;1.67;;;34.20;38.40;;;;;;5116183;28;20478;-66
2022/07/03 12:14:50;;;;;;;5.50;1.42;;;34.30;38.60;;;;;;5116625;28;20027;-68
2022/07/03 12:17:24;;;;;;;4.72;1.58;;;34.30;38.30;;;;;;5116253;28;20052;-66
2022/07/03 12:19:54;;;;;;;5.63;1.85;;;34.40;37.70;;;;;;5116290;27;20046;-66
2022/07/03 12:22:25;;;;;;;4.50;1.58;;;34.40;38.20;;;;;;5114826;27;20031;-69
2022/07/03 12:25:05;;;;;;;5.00;2.00;;;34.30;37.70;;;;;;5115992;28;20034;-67
2022/07/03 12:27:39;;;;;;;6.22;1.83;;;34.40;37.30;;;;;;5116159;28;20048;-67
2022/07/03 12:30:06;;;;;;;6.18;1.60;;;34.40;39.20;;;;;;5115920;28;20110;-67
2022/07/03 12:32:32;;;;;;;7.03;1.60;;;34.40;37.80;;;;;;5115961;28;20509;-67
2022/07/03 12:34:58;;;;;;;7.65;1.70;;;34.40;38.40;;;;;;5115911;28;20504;-66
2022/07/03 12:37:37;;;;;;;5.30;1.42;;;34.50;38.10;;;;;;5115892;28;20032;-66
2022/07/03 12:40:04;;;;;;;3.50;1.30;;;;;;;;;;5115791;28;20040;-67
2022/07/03 12:42:30;;;;;;;4.88;1.52;;;;;;;;;;5115744;28;20496;-67
2022/07/03 12:44:57;;;;;;;7.55;1.60;;;;;;;;;;5115706;28;20035;-69
2022/07/03 12:47:23;;;;;;;4.22;1.58;;;;;;;;;;5115476;28;20436;-67
2022/07/03 12:49:55;;;;;;;3.15;1.38;;;;;;;;;;5115809;28;20028;-67
2022/07/03 12:52:21;;;;;;;3.33;1.60;;;;;;;;;;5115690;28;20435;-67
2022/07/03 12:54:47;;;;;;;3.13;1.25;;;;;;;;;;5115188;28;20089;-67
2022/07/03 13:00:02;;;;;;;4.53;1.40;;;;;;;;;;5112944;28;20051;-67
2022/07/03 13:02:29;;;;;;;3.75;1.48;;;;;;;;;;5112571;28;20043;-69
2022/07/03 13:04:55;;;;;;;6.63;1.70;;;;;;;;;;5115425;28;20035;-70
2022/07/03 13:07:21;;;;;;;9.85;1.60;;;;;;;;;;5115407;28;20036;-70
2022/07/03 13:09:55;;;;;;;4.68;1.70;;;;;;;;;;5115408;28;20081;-67
2022/07/03 13:12:24;;;;;;;6.03;1.83;;;;;;;;;;5115200;28;20040;-67
2022/07/03 13:14:57;;;;;;;4.55;1.67;;;;;;;;;;5115145;28;20043;-67
2022/07/03 13:17:23;;;;;;;4.97;1.30;;;;;;;;;;5114769;28;20047;-67
2022/07/03 13:19:49;;;;;;;4.63;1.77;;;;;;;;;;5115034;28;20050;-68
2022/07/03 13:22:15;;;;;;;4.25;1.70;;;;;;;;;;5115111;28;20032;-67
2022/07/03 13:24:41;;;;;;;4.85;1.45;;;;;;;;;;5111420;28;20473;-67